createdAt,value
2023-02-21T00:00:44.497Z,98768.09
2023-02-21T00:03:34.955Z,98763.08
2023-02-21T00:06:27.985Z,98762.28
2023-02-21T00:09:18.734Z,98745.34
2023-02-21T00:12:10.008Z,98742.50
2023-02-21T00:15:00.755Z,98732.86
2023-02-21T00:17:51.756Z,98718.74
2023-02-21T00:20:42.297Z,98718.05
2023-02-21T00:23:33.308Z,98704.05
2023-02-21T00:26:24.575Z,98699.80
2023-02-21T00:29:16.880Z,98688.66
2023-02-21T00:32:09.720Z,98680.55
2023-02-21T00:35:00.774Z,98677.22
2023-02-21T00:37:50.997Z,98671.68
2023-02-21T00:40:42.348Z,98660.24
2023-02-21T00:43:35.728Z,98653.83
2023-02-21T00:46:25.783Z,98647.52
2023-02-21T00:49:18.661Z,98635.49
2023-02-21T00:52:09.468Z,98623.54
2023-02-21T00:55:00.582Z,98611.98
2023-02-21T00:57:51.496Z,98594.53
2023-02-21T01:00:43.284Z,98580.89
2023-02-21T01:03:34.282Z,98571.43
2023-02-21T01:06:29.725Z,98558.97
2023-02-21T01:09:20.367Z,98547.16
2023-02-21T01:12:11.221Z,98531.06
2023-02-21T01:15:02.057Z,98524.38
2023-02-21T01:17:54.981Z,98511.36
2023-02-21T01:20:46.192Z,98498.45
2023-02-21T01:23:37.372Z,98475.66
2023-02-21T01:26:28.681Z,98456.61
2023-02-21T01:29:21.987Z,98448.83
2023-02-21T01:32:13.565Z,98443.90
2023-02-21T01:35:04.009Z,98423.87
2023-02-21T01:37:55.008Z,98412.11
2023-02-21T01:40:46.002Z,98402.92
2023-02-21T01:43:40.195Z,98391.98
2023-02-21T01:46:32.627Z,98388.23
2023-02-21T01:49:26.636Z,98366.00
2023-02-21T01:52:17.945Z,98360.19
2023-02-21T01:55:10.840Z,98348.32
2023-02-21T01:58:03.172Z,98340.45
2023-02-21T02:00:54.435Z,98334.50
2023-02-21T02:03:45.044Z,98329.36
2023-02-21T02:06:35.986Z,98330.27
2023-02-21T02:09:35.777Z,98317.53
2023-02-21T02:12:23.254Z,98323.55
2023-02-21T02:15:26.326Z,98297.95
2023-02-21T02:18:36.837Z,98299.81
2023-02-21T02:21:29.544Z,98290.05
2023-02-21T02:24:28.516Z,98279.87
2023-02-21T02:27:10.411Z,98271.58
2023-02-21T02:30:08.029Z,98257.64
2023-02-21T02:32:45.038Z,98248.44
2023-02-21T02:35:35.422Z,98243.59
2023-02-21T02:38:20.112Z,98234.80
2023-02-21T02:41:24.540Z,98228.74
2023-02-21T02:44:02.628Z,98203.05
2023-02-21T02:46:36.189Z,98187.25
2023-02-21T02:49:15.632Z,98183.40
2023-02-21T02:51:49.541Z,98173.12
2023-02-21T02:54:23.218Z,98150.87
2023-02-21T02:56:56.319Z,98170.23
2023-02-21T02:59:30.115Z,98162.63
2023-02-21T03:02:25.174Z,98148.58
2023-02-21T03:05:22.326Z,98136.33
2023-02-21T03:08:11.167Z,98139.55
2023-02-21T03:10:51.252Z,98118.71
2023-02-21T03:13:44.120Z,98101.28
2023-02-21T03:16:25.589Z,98117.39
2023-02-21T03:19:10.289Z,98103.53
2023-02-21T03:21:44.900Z,98080.86
2023-02-21T03:24:18.431Z,98068.00
2023-02-21T03:26:54.032Z,98060.20
2023-02-21T03:29:28.754Z,98062.48
2023-02-21T03:32:13.338Z,98065.05
2023-02-21T03:34:46.400Z,98059.09
2023-02-21T03:37:31.113Z,98053.58
2023-02-21T03:40:10.057Z,98041.10
2023-02-21T03:42:42.985Z,98031.73
2023-02-21T03:45:16.018Z,98026.17
2023-02-21T03:47:49.521Z,98016.77
2023-02-21T03:50:23.567Z,98015.98
2023-02-21T03:52:56.716Z,98019.34
2023-02-21T03:55:29.993Z,98010.75
2023-02-21T03:58:03.158Z,98014.70
2023-02-21T04:00:36.530Z,98004.50
2023-02-21T04:03:09.491Z,97996.37
2023-02-21T04:05:47.112Z,97985.12
2023-02-21T04:08:20.034Z,97982.47
2023-02-21T04:10:53.251Z,97991.05
2023-02-21T04:13:27.670Z,97978.61
2023-02-21T04:16:02.051Z,97979.40
2023-02-21T04:18:37.677Z,97971.59
2023-02-21T04:21:11.080Z,97968.65
2023-02-21T04:23:44.472Z,97958.74
2023-02-21T04:26:17.318Z,97963.19
2023-02-21T04:28:52.888Z,97946.89
2023-02-21T04:31:25.699Z,97950.73
2023-02-21T04:34:11.381Z,97940.84
2023-02-21T04:36:34.725Z,97934.50
2023-02-21T04:39:08.543Z,97920.86
2023-02-21T04:41:41.942Z,97928.06
2023-02-21T04:44:15.288Z,97918.78
2023-02-21T04:46:49.746Z,97914.52
2023-02-21T04:49:24.182Z,97919.33
2023-02-21T04:51:57.122Z,97919.92
2023-02-21T04:54:29.844Z,97920.87
2023-02-21T04:57:02.525Z,97910.19
2023-02-21T04:59:35.128Z,97903.38
2023-02-21T05:02:08.722Z,97906.04
2023-02-21T05:04:43.452Z,97901.77
2023-02-21T05:07:16.573Z,97907.41
2023-02-21T05:09:50.180Z,97900.57
2023-02-21T05:12:22.840Z,97905.39
2023-02-21T05:14:55.455Z,97896.97
2023-02-21T05:17:28.263Z,97901.33
2023-02-21T05:20:00.988Z,97885.57
2023-02-21T05:22:34.686Z,97890.02
2023-02-21T05:25:11.031Z,97887.91
2023-02-21T05:27:44.429Z,97881.47
2023-02-21T05:30:19.482Z,97877.41
2023-02-21T05:32:52.353Z,97889.20
2023-02-21T05:35:24.928Z,97885.43
2023-02-21T05:37:58.379Z,97878.30
2023-02-21T05:40:31.932Z,97887.05
2023-02-21T05:43:04.579Z,97896.55
2023-02-21T05:45:38.085Z,97894.06
2023-02-21T05:48:11.100Z,97892.95
2023-02-21T05:50:45.563Z,97879.46
2023-02-21T05:53:18.141Z,97869.01
2023-02-21T05:55:51.352Z,97881.30
2023-02-21T05:58:24.166Z,97882.84
2023-02-21T06:00:57.019Z,97883.58
2023-02-21T06:03:30.437Z,97883.00
2023-02-21T06:06:03.828Z,97862.36
2023-02-21T06:08:48.213Z,97850.27
2023-02-21T06:11:28.710Z,97849.46
2023-02-21T06:14:06.005Z,97846.25
2023-02-21T06:16:39.286Z,97852.28
2023-02-21T06:19:13.161Z,97855.72
2023-02-21T06:21:46.518Z,97851.56
2023-02-21T06:24:19.210Z,97853.55
2023-02-21T06:26:52.082Z,97838.25
2023-02-21T06:29:24.704Z,97840.98
2023-02-21T06:32:01.310Z,97833.08
2023-02-21T06:34:34.248Z,97818.34
2023-02-21T06:37:07.635Z,97819.87
2023-02-21T06:39:41.439Z,97822.34
2023-02-21T06:42:15.590Z,97826.92
2023-02-21T06:44:49.435Z,97828.83
2023-02-21T06:47:27.431Z,97830.69
2023-02-21T06:50:00.761Z,97830.27
2023-02-21T06:52:33.483Z,97830.27
2023-02-21T06:55:07.771Z,97830.34
2023-02-21T06:57:40.674Z,97833.34
2023-02-21T07:00:14.230Z,97828.64
2023-02-21T07:02:47.006Z,97823.18
2023-02-21T07:05:19.749Z,97817.27
2023-02-21T07:07:53.847Z,97819.62
2023-02-21T07:10:27.238Z,97816.77
2023-02-21T07:13:00.632Z,97821.28
2023-02-21T07:15:33.755Z,97825.83
2023-02-21T07:18:06.907Z,97823.55
2023-02-21T07:20:39.897Z,97818.20
2023-02-21T07:23:13.337Z,97822.22
2023-02-21T07:25:48.030Z,97826.99
2023-02-21T07:28:20.858Z,97834.23
2023-02-21T07:30:53.869Z,97820.92
2023-02-21T07:33:27.303Z,97822.63
2023-02-21T07:36:00.878Z,97827.38
2023-02-21T07:38:33.945Z,97811.91
2023-02-21T07:41:07.290Z,97823.51
2023-02-21T07:43:40.405Z,97810.23
2023-02-21T07:46:15.160Z,97813.68
2023-02-21T07:48:48.389Z,97799.98
2023-02-21T07:51:21.187Z,97795.70
2023-02-21T07:53:54.181Z,97798.84
2023-02-21T07:56:26.962Z,97794.78
2023-02-21T07:58:59.676Z,97794.09
2023-02-21T08:01:33.497Z,97793.36
2023-02-21T08:04:06.768Z,97792.63
2023-02-21T08:06:39.518Z,97789.36
2023-02-21T08:09:12.824Z,97783.47
2023-02-21T08:11:45.560Z,97782.33
2023-02-21T08:14:18.332Z,97791.57
2023-02-21T08:16:51.868Z,97779.27
2023-02-21T08:19:26.396Z,97785.86
2023-02-21T08:21:59.680Z,97775.75
2023-02-21T08:24:32.363Z,97776.09
2023-02-21T08:27:05.123Z,97789.91
2023-02-21T08:29:38.064Z,97785.20
2023-02-21T08:32:10.866Z,97777.92
2023-02-21T08:34:48.544Z,97780.84
2023-02-21T08:37:21.584Z,97779.41
2023-02-21T08:39:54.355Z,97790.49
2023-02-21T08:42:27.500Z,97782.16
2023-02-21T08:45:00.114Z,97774.36
2023-02-21T08:47:37.230Z,97776.49
2023-02-21T08:50:10.096Z,97784.09
2023-02-21T08:52:43.805Z,97773.88
2023-02-21T08:55:16.802Z,97782.60
2023-02-21T08:57:50.527Z,97773.75
2023-02-21T09:00:25.193Z,97784.31
2023-02-21T09:02:59.914Z,97776.36
2023-02-21T09:05:33.349Z,97780.48
2023-02-21T09:08:07.873Z,97791.53
2023-02-21T09:10:42.305Z,97797.02
2023-02-21T09:13:15.179Z,97800.47
2023-02-21T09:15:48.010Z,97803.20
2023-02-21T09:18:21.596Z,97820.27
2023-02-21T09:20:57.536Z,97810.59
2023-02-21T09:23:35.037Z,97806.08
2023-02-21T09:26:07.910Z,97809.36
2023-02-21T09:28:44.012Z,97805.36
2023-02-21T09:31:17.067Z,97816.43
2023-02-21T09:33:50.251Z,97813.72
2023-02-21T09:36:23.795Z,97803.11
2023-02-21T09:38:59.009Z,97795.95
2023-02-21T09:41:31.022Z,97804.20
2023-02-21T09:44:05.358Z,97789.11
2023-02-21T09:46:43.939Z,97805.55
2023-02-21T09:49:33.899Z,97796.48
2023-02-21T09:52:06.543Z,97794.28
2023-02-21T09:54:42.288Z,97801.13
2023-02-21T09:57:17.852Z,97801.13
2023-02-21T09:59:50.410Z,97798.17
2023-02-21T10:02:26.684Z,97797.84
2023-02-21T10:05:17.293Z,97784.97
2023-02-21T10:08:09.477Z,97794.20
2023-02-21T10:10:55.753Z,97789.14
2023-02-21T10:13:44.071Z,97794.98
2023-02-21T10:16:18.869Z,97799.48
2023-02-21T10:18:56.337Z,97796.25
2023-02-21T10:21:32.514Z,97808.95
2023-02-21T10:24:14.169Z,97790.53
2023-02-21T10:26:50.455Z,97797.06
2023-02-21T10:29:28.420Z,97804.05
2023-02-21T10:32:03.597Z,97804.05
2023-02-21T10:34:36.801Z,97798.86
2023-02-21T10:37:31.134Z,97800.21
2023-02-21T10:40:23.725Z,97788.18
2023-02-21T10:43:08.869Z,97806.55
2023-02-21T10:45:46.812Z,97802.43
2023-02-21T10:48:19.091Z,97806.31
2023-02-21T10:50:53.618Z,97810.42
2023-02-21T10:53:37.541Z,97820.23
2023-02-21T10:56:24.706Z,97815.05
2023-02-21T10:59:06.399Z,97824.52
2023-02-21T11:01:44.982Z,97832.34
2023-02-21T11:04:24.490Z,97831.05
2023-02-21T11:07:01.706Z,97832.40
2023-02-21T11:09:37.352Z,97819.05
2023-02-21T11:12:21.895Z,97834.99
2023-02-21T11:15:00.757Z,97828.45
2023-02-21T11:17:34.205Z,97820.69
2023-02-21T11:20:18.982Z,97818.63
2023-02-21T11:22:52.923Z,97823.98
2023-02-21T11:25:29.188Z,97808.16
2023-02-21T11:28:13.990Z,97805.80
2023-02-21T11:30:52.468Z,97808.23
2023-02-21T11:33:25.391Z,97814.48
2023-02-21T11:36:13.067Z,97805.46
2023-02-21T11:38:48.424Z,97810.17
2023-02-21T11:41:26.672Z,97809.24
2023-02-21T11:43:59.783Z,97813.36
2023-02-21T11:46:41.466Z,97827.34
2023-02-21T11:49:20.274Z,97821.61
2023-02-21T11:52:08.932Z,97818.03
2023-02-21T11:54:42.024Z,97826.25
2023-02-21T11:57:24.131Z,97843.16
2023-02-21T12:00:12.350Z,97834.09
2023-02-21T12:02:59.727Z,97838.03
2023-02-21T12:05:54.570Z,97834.63
2023-02-21T12:08:47.395Z,97838.45
2023-02-21T12:11:43.306Z,97841.70
2023-02-21T12:14:19.222Z,97830.23
2023-02-21T12:17:15.130Z,97841.36
2023-02-21T12:20:20.235Z,97835.25
2023-02-21T12:23:21.598Z,97812.03
2023-02-21T12:26:06.899Z,97829.64
2023-02-21T12:28:48.794Z,97842.08
2023-02-21T12:31:48.850Z,97833.23
2023-02-21T12:34:30.702Z,97830.27
2023-02-21T12:37:21.201Z,97824.69
2023-02-21T12:40:13.182Z,97824.69
2023-02-21T12:42:51.778Z,97824.27
2023-02-21T12:45:42.856Z,97821.67
2023-02-21T12:48:30.663Z,97816.06
2023-02-21T12:51:06.738Z,97826.09
2023-02-21T12:53:57.437Z,97823.56
2023-02-21T12:56:39.489Z,97827.02
2023-02-21T12:59:36.223Z,97820.65
2023-02-21T13:02:30.144Z,97828.48
2023-02-21T13:05:08.012Z,97834.96
2023-02-21T13:07:50.223Z,97833.19
2023-02-21T13:10:28.818Z,97853.88
2023-02-21T13:13:08.791Z,97843.00
2023-02-21T13:15:45.826Z,97853.71
2023-02-21T13:18:27.970Z,97851.91
2023-02-21T13:21:26.228Z,97861.75
2023-02-21T13:24:18.908Z,97855.16
2023-02-21T13:27:33.845Z,97855.10
2023-02-21T13:30:27.720Z,97846.08
2023-02-21T13:33:01.788Z,97863.47
2023-02-21T13:35:39.736Z,97873.95
2023-02-21T13:38:12.757Z,97855.86
2023-02-21T13:40:53.726Z,97851.17
2023-02-21T13:43:31.855Z,97871.91
2023-02-21T13:46:32.577Z,97875.30
2023-02-21T13:49:43.009Z,97870.00
2023-02-21T13:52:24.555Z,97869.78
2023-02-21T13:55:17.909Z,97861.41
2023-02-21T13:58:01.177Z,97868.69
2023-02-21T14:00:37.159Z,97869.88
2023-02-21T14:03:14.701Z,97878.34
2023-02-21T14:05:51.169Z,97887.78
2023-02-21T14:08:43.901Z,97899.27
2023-02-21T14:11:32.078Z,97896.87
2023-02-21T14:14:08.234Z,97892.52
2023-02-21T14:16:53.209Z,97890.21
2023-02-21T14:19:28.779Z,97893.91
2023-02-21T14:22:06.084Z,97893.79
2023-02-21T14:24:41.606Z,97889.41
2023-02-21T14:27:17.924Z,97894.15
2023-02-21T14:30:03.305Z,97892.03
2023-02-21T14:32:52.957Z,97895.04
2023-02-21T14:35:36.824Z,97889.84
2023-02-21T14:38:17.740Z,97893.68
2023-02-21T14:41:11.969Z,97897.23
2023-02-21T14:43:56.058Z,97894.87
2023-02-21T14:46:34.752Z,97898.48
2023-02-21T14:49:32.187Z,97897.83
2023-02-21T14:52:29.389Z,97901.15
2023-02-21T14:55:24.296Z,97900.46
2023-02-21T14:58:12.857Z,97901.16
2023-02-21T15:01:04.237Z,97897.89
2023-02-21T15:03:44.473Z,97901.62
2023-02-21T15:06:23.358Z,97908.38
2023-02-21T15:08:56.089Z,97904.70
2023-02-21T15:11:40.595Z,97901.56
2023-02-21T15:14:18.245Z,97906.59
2023-02-21T15:16:59.494Z,97905.66
2023-02-21T15:19:34.213Z,97904.16
2023-02-21T15:22:26.859Z,97909.18
2023-02-21T15:25:11.603Z,97909.45
2023-02-21T15:27:54.003Z,97926.48
2023-02-21T15:30:30.188Z,97928.06
2023-02-21T15:33:09.486Z,97927.05
2023-02-21T15:35:48.470Z,97935.37
2023-02-21T15:38:33.646Z,97932.27
2023-02-21T15:41:18.887Z,97930.83
2023-02-21T15:44:08.730Z,97939.38
2023-02-21T15:46:50.508Z,97931.07
2023-02-21T15:49:29.210Z,97928.83
2023-02-21T15:52:03.320Z,97928.34
2023-02-21T15:54:39.472Z,97934.87
2023-02-21T15:57:15.313Z,97942.97
2023-02-21T15:59:48.692Z,97943.37
2023-02-21T16:02:26.469Z,97946.83
2023-02-21T16:04:59.588Z,97948.13
2023-02-21T16:07:38.774Z,97953.63
2023-02-21T16:10:12.976Z,97953.14
2023-02-21T16:12:48.450Z,97956.56
2023-02-21T16:15:35.683Z,97959.52
2023-02-21T16:18:10.161Z,97964.30
2023-02-21T16:20:44.760Z,97966.54
2023-02-21T16:23:32.425Z,97965.67
2023-02-21T16:26:13.100Z,97968.25
2023-02-21T16:28:45.923Z,97970.76
2023-02-21T16:31:32.450Z,97977.33
2023-02-21T16:34:05.400Z,97977.40
2023-02-21T16:36:39.925Z,97982.18
2023-02-21T16:39:12.534Z,97978.31
2023-02-21T16:41:45.225Z,97966.20
2023-02-21T16:44:17.945Z,97976.03
2023-02-21T16:46:52.852Z,97982.03
2023-02-21T16:49:25.908Z,97985.76
2023-02-21T16:51:58.824Z,97985.53
2023-02-21T16:54:32.179Z,97995.64
2023-02-21T16:57:04.940Z,97991.95
2023-02-21T16:59:38.795Z,97994.31
2023-02-21T17:02:15.194Z,97987.63
2023-02-21T17:04:47.964Z,97983.69
2023-02-21T17:07:22.846Z,97977.72
2023-02-21T17:09:55.432Z,97984.71
2023-02-21T17:12:28.133Z,97987.06
2023-02-21T17:15:01.361Z,97986.80
2023-02-21T17:17:34.792Z,97986.52
2023-02-21T17:20:08.401Z,97983.53
2023-02-21T17:22:41.579Z,97982.58
2023-02-21T17:25:14.208Z,97989.37
2023-02-21T17:27:46.963Z,97984.94
2023-02-21T17:30:21.801Z,98000.42
2023-02-21T17:32:54.935Z,98006.95
2023-02-21T17:35:28.604Z,98013.06
2023-02-21T17:38:01.866Z,98006.95
2023-02-21T17:40:34.927Z,98028.09
2023-02-21T17:43:09.231Z,98019.86
2023-02-21T17:45:41.942Z,98023.39
2023-02-21T17:48:14.685Z,98025.58
2023-02-21T17:50:48.199Z,98029.11
2023-02-21T17:53:21.637Z,98033.06
2023-02-21T17:55:54.357Z,98030.48
2023-02-21T17:58:33.914Z,98039.02
2023-02-21T18:01:08.590Z,98047.67
2023-02-21T18:03:40.964Z,98050.18
2023-02-21T18:06:13.573Z,98057.09
2023-02-21T18:08:47.326Z,98058.88
2023-02-21T18:11:20.325Z,98066.63
2023-02-21T18:13:53.532Z,98073.41
2023-02-21T18:16:26.499Z,98071.63
2023-02-21T18:18:59.806Z,98071.97
2023-02-21T18:21:33.526Z,98066.16
2023-02-21T18:24:11.143Z,98070.22
2023-02-21T18:26:44.016Z,98076.43
2023-02-21T18:29:16.805Z,98072.41
2023-02-21T18:31:56.596Z,98072.33
2023-02-21T18:34:29.603Z,98071.67
2023-02-21T18:37:04.202Z,98071.86
2023-02-21T18:39:37.175Z,98080.27
2023-02-21T18:42:10.067Z,98077.91
2023-02-21T18:44:42.876Z,98077.75
2023-02-21T18:47:17.122Z,98083.17
2023-02-21T18:49:50.007Z,98095.44
2023-02-21T18:52:23.246Z,98093.99
2023-02-21T18:54:57.955Z,98092.84
2023-02-21T18:57:31.871Z,98093.09
2023-02-21T19:00:06.899Z,98092.59
2023-02-21T19:02:39.554Z,98099.05
2023-02-21T19:05:20.144Z,98102.99
2023-02-21T19:07:53.909Z,98098.41
2023-02-21T19:10:29.004Z,98110.81
2023-02-21T19:13:02.417Z,98112.02
2023-02-21T19:15:35.338Z,98119.75
2023-02-21T19:18:09.173Z,98116.80
2023-02-21T19:20:43.440Z,98116.38
2023-02-21T19:23:16.883Z,98122.83
2023-02-21T19:25:49.922Z,98127.57
2023-02-21T19:28:25.026Z,98134.93
2023-02-21T19:30:57.550Z,98137.59
2023-02-21T19:33:30.179Z,98145.88
2023-02-21T19:36:06.213Z,98135.97
2023-02-21T19:38:39.180Z,98148.45
2023-02-21T19:41:11.872Z,98143.29
2023-02-21T19:43:45.324Z,98148.37
2023-02-21T19:46:24.808Z,98146.70
2023-02-21T19:48:57.829Z,98151.94
2023-02-21T19:51:32.328Z,98160.55
2023-02-21T19:54:06.173Z,98159.84
2023-02-21T19:56:39.880Z,98162.80
2023-02-21T19:59:12.965Z,98164.83
2023-02-21T20:01:46.303Z,98176.73
2023-02-21T20:04:19.649Z,98179.73
2023-02-21T20:06:52.952Z,98177.23
2023-02-21T20:09:26.034Z,98181.52
2023-02-21T20:12:00.170Z,98186.59
2023-02-21T20:14:33.251Z,98188.01
2023-02-21T20:17:06.418Z,98193.91
2023-02-21T20:19:41.261Z,98193.33
2023-02-21T20:22:14.315Z,98192.78
2023-02-21T20:24:47.332Z,98193.41
2023-02-21T20:27:20.703Z,98197.27
2023-02-21T20:29:54.254Z,98197.80
2023-02-21T20:32:27.628Z,98197.87
2023-02-21T20:35:02.034Z,98198.31
2023-02-21T20:37:35.704Z,98196.51
2023-02-21T20:40:11.447Z,98201.02
2023-02-21T20:42:44.880Z,98205.13
2023-02-21T20:45:18.836Z,98204.72
2023-02-21T20:47:52.933Z,98202.22
2023-02-21T20:50:26.286Z,98197.77
2023-02-21T20:52:59.935Z,98202.22
2023-02-21T20:55:33.339Z,98198.86
2023-02-21T20:58:06.896Z,98208.52
2023-02-21T21:00:40.471Z,98201.11
2023-02-21T21:03:15.531Z,98209.45
2023-02-21T21:05:48.894Z,98219.77
2023-02-21T21:08:22.580Z,98211.16
2023-02-21T21:10:57.280Z,98200.84
2023-02-21T21:13:31.118Z,98198.89
2023-02-21T21:16:07.917Z,98201.00
2023-02-21T21:18:41.791Z,98198.34
2023-02-21T21:21:16.001Z,98198.72
2023-02-21T21:23:49.204Z,98199.04
2023-02-21T21:26:22.488Z,98190.81
2023-02-21T21:28:55.473Z,98180.05
2023-02-21T21:31:28.539Z,98179.55
2023-02-21T21:34:01.469Z,98178.34
2023-02-21T21:36:36.088Z,98177.47
2023-02-21T21:39:09.003Z,98187.36
2023-02-21T21:41:46.939Z,98193.39
2023-02-21T21:44:23.500Z,98196.88
2023-02-21T21:46:56.620Z,98189.23
2023-02-21T21:49:35.472Z,98188.50
2023-02-21T21:52:08.638Z,98184.63
2023-02-21T21:54:45.676Z,98187.38
2023-02-21T21:57:20.279Z,98199.47
2023-02-21T21:59:53.344Z,98202.05
2023-02-21T22:02:26.514Z,98204.72
2023-02-21T22:04:59.352Z,98209.37
2023-02-21T22:07:31.844Z,98218.97
2023-02-21T22:10:06.813Z,98230.16
2023-02-21T22:12:40.817Z,98223.42
2023-02-21T22:15:13.661Z,98242.52
2023-02-21T22:17:46.968Z,98240.11
2023-02-21T22:20:23.971Z,98256.13
2023-02-21T22:22:59.465Z,98252.61
2023-02-21T22:25:35.325Z,98259.81
2023-02-21T22:28:12.430Z,98241.95
2023-02-21T22:30:46.340Z,98238.63
2023-02-21T22:33:21.307Z,98248.73
2023-02-21T22:35:55.188Z,98239.30
2023-02-21T22:38:27.770Z,98240.17
2023-02-21T22:41:00.548Z,98242.20
2023-02-21T22:43:33.390Z,98244.98
2023-02-21T22:46:08.072Z,98238.31
2023-02-21T22:48:40.794Z,98243.59
2023-02-21T22:51:15.085Z,98249.86
2023-02-21T22:53:51.252Z,98242.86
2023-02-21T22:56:24.837Z,98258.23
2023-02-21T22:59:00.016Z,98263.95
2023-02-21T23:01:34.307Z,98265.32
2023-02-21T23:04:14.704Z,98270.73
2023-02-21T23:06:47.814Z,98280.34
2023-02-21T23:09:20.819Z,98272.88
2023-02-21T23:11:55.764Z,98279.95
2023-02-21T23:14:31.211Z,98275.47
2023-02-21T23:17:04.088Z,98281.69
2023-02-21T23:19:38.663Z,98289.13
2023-02-21T23:22:11.423Z,98291.88
2023-02-21T23:24:45.998Z,98300.16
2023-02-21T23:27:20.704Z,98296.05
2023-02-21T23:29:54.361Z,98311.23
2023-02-21T23:32:28.781Z,98301.01
2023-02-21T23:35:01.980Z,98294.65
2023-02-21T23:37:36.693Z,98312.88
2023-02-21T23:40:12.576Z,98312.38
2023-02-21T23:42:47.090Z,98311.96
2023-02-21T23:45:23.355Z,98316.74
2023-02-21T23:47:56.492Z,98326.88
2023-02-21T23:50:30.711Z,98329.67
2023-02-21T23:53:04.092Z,98317.19
2023-02-21T23:55:36.884Z,98336.77
2023-02-21T23:58:13.105Z,98336.77
